Time;durP1;ratioP1;P1;durP2;ratioP2;P2;SDS_P1;SDS_P2;PMS_P1;PMS_P2;Temp;Humidity;BMP_temperature;BMP_pressure;BME280_temperature;BME280_humidity;BME280_pressure;Samples;Min_cycle;Max_cycle;Signal;HPM_P1;HPM_P2
2023/01/29 00:01:03;;;;;;;0.10;0.10;;;1.00;99.90;;;;;;5092397;28;20503;-66
2023/01/29 00:03:29;;;;;;;0.00;0.00;;;1.00;99.90;;;;;;5092366;28;20176;-68
2023/01/29 00:05:54;;;;;;;0.00;0.00;;;1.00;99.90;;;;;;5092208;28;20184;-67
2023/01/29 00:08:20;;;;;;;0.00;0.00;;;0.90;99.90;;;;;;5092377;28;20225;-68
2023/01/29 00:10:46;;;;;;;0.97;0.97;;;1.00;99.90;;;;;;5091080;28;20179;-68
2023/01/29 00:13:11;;;;;;;0.00;0.00;;;0.90;99.90;;;;;;5091946;28;20296;-68
2023/01/29 00:15:37;;;;;;;0.00;0.00;;;0.90;99.90;;;;;;5092256;28;20254;-67
2023/01/29 00:18:02;;;;;;;0.00;0.00;;;0.90;99.90;;;;;;5092264;28;20172;-66
2023/01/29 00:20:29;;;;;;;0.00;0.00;;;0.80;99.90;;;;;;5092220;28;20831;-65
2023/01/29 00:22:54;;;;;;;0.00;0.00;;;0.80;99.90;;;;;;5092205;28;20211;-65
2023/01/29 00:25:20;;;;;;;0.00;0.00;;;0.80;99.90;;;;;;5090809;28;20673;-65
2023/01/29 00:27:45;;;;;;;0.00;0.00;;;0.70;99.90;;;;;;5092093;28;20189;-65
2023/01/29 00:30:11;;;;;;;0.00;0.00;;;0.70;99.90;;;;;;5090742;28;20224;-66
2023/01/29 00:32:41;;;;;;;0.00;0.00;;;0.60;99.90;;;;;;5092022;28;20168;-66
2023/01/29 00:35:08;;;;;;;0.00;0.00;;;0.60;99.90;;;;;;5091469;28;20215;-66
2023/01/29 00:37:34;;;;;;;0.10;0.10;;;0.60;99.90;;;;;;5092035;28;20176;-66
2023/01/29 00:39:59;;;;;;;0.00;0.00;;;0.60;99.90;;;;;;5091914;28;20217;-66
2023/01/29 00:45:10;;;;;;;0.00;0.00;;;0.50;99.90;;;;;;5092133;28;20726;-66
2023/01/29 00:47:36;;;;;;;0.00;0.00;;;0.50;99.90;;;;;;5091975;28;20191;-67
2023/01/29 00:50:06;;;;;;;0.77;0.47;;;0.50;99.90;;;;;;5091955;28;20180;-67
2023/01/29 00:52:32;;;;;;;0.00;0.00;;;0.40;99.90;;;;;;5091787;28;20180;-66
2023/01/29 00:55:00;;;;;;;0.20;0.20;;;0.40;99.90;;;;;;5091679;28;20212;-66
2023/01/29 00:57:28;;;;;;;0.00;0.00;;;0.40;99.90;;;;;;5091854;28;20183;-66
2023/01/29 00:59:54;;;;;;;0.00;0.00;;;0.40;99.90;;;;;;5091735;28;20654;-66
2023/01/29 01:05:12;;;;;;;0.00;0.00;;;0.30;99.90;;;;;;5092039;28;20248;-67
2023/01/29 01:07:39;;;;;;;0.33;0.33;;;0.40;99.90;;;;;;5091776;28;20188;-66
2023/01/29 01:10:21;;;;;;;0.00;0.00;;;0.40;99.90;;;;;;5091688;28;20169;-67
2023/01/29 01:12:57;;;;;;;0.17;0.10;;;0.40;99.90;;;;;;5091401;28;20233;-67
2023/01/29 01:15:27;;;;;;;0.00;0.00;;;0.40;99.90;;;;;;5091698;28;20333;-67
2023/01/29 01:17:54;;;;;;;0.00;0.00;;;0.40;99.90;;;;;;5091495;28;20176;-67
2023/01/29 01:20:20;;;;;;;0.17;0.17;;;0.40;99.90;;;;;;5091625;28;20186;-67
2023/01/29 01:22:45;;;;;;;0.00;0.00;;;0.40;99.90;;;;;;5091546;28;20164;-67
2023/01/29 01:25:11;;;;;;;0.00;0.00;;;0.30;99.90;;;;;;5091507;28;20700;-67
2023/01/29 01:27:39;;;;;;;0.13;0.13;;;0.30;99.90;;;;;;5091649;28;20187;-67
2023/01/29 01:30:10;;;;;;;0.00;0.00;;;0.30;99.90;;;;;;5091572;28;20696;-67
2023/01/29 01:32:37;;;;;;;0.00;0.00;;;0.30;99.90;;;;;;5091584;28;20255;-67
2023/01/29 01:35:03;;;;;;;0.13;0.13;;;0.30;99.90;;;;;;5091477;28;20207;-67
2023/01/29 01:37:28;;;;;;;0.10;0.10;;;0.30;99.90;;;;;;5091525;28;20190;-67
2023/01/29 01:39:56;;;;;;;0.00;0.00;;;0.30;99.90;;;;;;5091513;28;20173;-67
2023/01/29 01:42:23;;;;;;;0.23;0.23;;;0.20;99.90;;;;;;5091533;28;20184;-67
2023/01/29 01:44:54;;;;;;;0.00;0.00;;;0.20;99.90;;;;;;5091466;28;20176;-66
2023/01/29 01:47:32;;;;;;;0.00;0.00;;;0.30;99.90;;;;;;5094060;28;20180;-64
2023/01/29 01:50:05;;;;;;;0.00;0.00;;;0.20;99.90;;;;;;5094508;28;20184;-65
2023/01/29 01:52:31;;;;;;;0.00;0.00;;;0.20;99.90;;;;;;5088009;28;20176;-64
2023/01/29 01:54:58;;;;;;;0.00;0.00;;;0.20;99.90;;;;;;5094425;28;20234;-65
2023/01/29 01:57:27;;;;;;;0.00;0.00;;;0.20;99.90;;;;;;5094629;28;20176;-64
2023/01/29 01:59:58;;;;;;;0.00;0.00;;;0.20;99.90;;;;;;5094152;28;20267;-64
2023/01/29 02:10:43;;;;;;;0.00;0.00;;;0.20;99.90;;;;;;5081592;28;20229;-64
2023/01/29 02:13:11;;;;;;;0.10;0.10;;;0.30;99.90;;;;;;5093312;28;20220;-64
2023/01/29 02:15:40;;;;;;;0.00;0.00;;;0.30;99.90;;;;;;5093731;28;20254;-64
2023/01/29 02:18:07;;;;;;;0.00;0.00;;;0.30;99.90;;;;;;5094273;28;20165;-64
2023/01/29 02:20:32;;;;;;;0.00;0.00;;;0.30;99.90;;;;;;5094342;28;20288;-64
2023/01/29 02:23:29;;;;;;;0.00;0.00;;;0.30;99.90;;;;;;5093872;28;20693;-64
2023/01/29 02:26:27;;;;;;;0.00;0.00;;;0.30;99.90;;;;;;5093749;28;20662;-64
2023/01/29 02:29:21;;;;;;;0.00;0.00;;;0.30;99.90;;;;;;5091689;28;20192;-64
2023/01/29 02:32:22;;;;;;;0.00;0.00;;;0.30;99.90;;;;;;5093543;28;20529;-64
2023/01/29 02:38:05;;;;;;;0.30;0.30;;;0.30;99.90;;;;;;5093541;28;20252;-65
2023/01/29 02:40:38;;;;;;;0.00;0.00;;;0.30;99.90;;;;;;5093346;28;20203;-65
2023/01/29 02:43:26;;;;;;;0.00;0.00;;;0.30;99.90;;;;;;5093170;28;20192;-65
2023/01/29 02:45:57;;;;;;;0.00;0.00;;;0.40;99.90;;;;;;5093335;28;20225;-64
2023/01/29 02:48:26;;;;;;;0.00;0.00;;;0.40;99.90;;;;;;5093265;28;20168;-64
2023/01/29 02:51:03;;;;;;;0.00;0.00;;;0.40;99.90;;;;;;5093146;28;20188;-64
2023/01/29 02:53:39;;;;;;;0.10;0.10;;;0.40;99.90;;;;;;5092018;28;20184;-64
2023/01/29 02:56:10;;;;;;;0.20;0.20;;;0.40;99.90;;;;;;5092355;28;20218;-64
2023/01/29 02:58:41;;;;;;;0.00;0.00;;;0.40;99.90;;;;;;5091537;28;20255;-64
2023/01/29 03:01:36;;;;;;;0.00;0.00;;;0.40;99.90;;;;;;5093199;28;20187;-64
2023/01/29 03:04:13;;;;;;;0.00;0.00;;;0.40;99.90;;;;;;5051769;28;20192;-65
2023/01/29 03:06:48;;;;;;;0.00;0.00;;;0.40;99.90;;;;;;5089406;28;20176;-64
2023/01/29 03:09:31;;;;;;;0.00;0.00;;;0.40;99.90;;;;;;5092819;28;20175;-64
2023/01/29 03:12:17;;;;;;;0.00;0.00;;;0.40;99.90;;;;;;5092626;28;20348;-65
2023/01/29 03:17:36;;;;;;;0.00;0.00;;;0.40;99.90;;;;;;5092739;28;20662;-65
2023/01/29 03:20:07;;;;;;;0.03;0.03;;;0.40;99.90;;;;;;5087889;28;20180;-65
2023/01/29 03:22:35;;;;;;;0.00;0.00;;;0.40;99.90;;;;;;5092470;28;20682;-64
2023/01/29 03:33:59;;;;;;;0.00;0.00;;;0.30;99.90;;;;;;5092430;28;20184;-65
2023/01/29 03:36:46;;;;;;;0.00;0.00;;;0.30;99.90;;;;;;5089977;28;20728;-65
2023/01/29 03:39:13;;;;;;;0.00;0.00;;;0.20;99.90;;;;;;5091444;28;20196;-65
2023/01/29 03:41:46;;;;;;;0.00;0.00;;;0.20;99.90;;;;;;5092653;28;20184;-65
2023/01/29 03:44:17;;;;;;;0.00;0.00;;;0.20;99.90;;;;;;5092465;28;20178;-65
2023/01/29 03:47:04;;;;;;;0.00;0.00;;;0.20;99.90;;;;;;5092341;28;20208;-65
2023/01/29 03:49:39;;;;;;;0.00;0.00;;;0.20;99.90;;;;;;5092119;28;20574;-65
2023/01/29 03:52:18;;;;;;;0.00;0.00;;;0.20;99.90;;;;;;5092348;28;20258;-65
2023/01/29 03:55:15;;;;;;;0.00;0.00;;;0.30;99.90;;;;;;5091920;28;20215;-65
2023/01/29 03:57:50;;;;;;;0.00;0.00;;;0.20;99.90;;;;;;5075339;28;20192;-65
2023/01/29 04:00:21;;;;;;;0.00;0.00;;;0.10;99.90;;;;;;5091929;28;20167;-65
2023/01/29 04:03:06;;;;;;;0.00;0.00;;;0.10;99.90;;;;;;5092130;28;20219;-65
2023/01/29 04:05:42;;;;;;;0.00;0.00;;;0.10;99.90;;;;;;5091863;28;20197;-65
2023/01/29 04:08:22;;;;;;;0.00;0.00;;;0.10;99.90;;;;;;5091170;28;20184;-65
2023/01/29 04:10:48;;;;;;;0.00;0.00;;;0.10;99.90;;;;;;5092010;28;20187;-65
2023/01/29 04:13:15;;;;;;;0.00;0.00;;;0.10;99.90;;;;;;5091494;28;20230;-65
2023/01/29 04:15:53;;;;;;;0.00;0.00;;;0.10;99.90;;;;;;5091433;28;20234;-65
2023/01/29 04:18:18;;;;;;;0.00;0.00;;;0.10;99.90;;;;;;5091600;28;20246;-64
2023/01/29 04:20:44;;;;;;;0.00;0.00;;;0.10;99.90;;;;;;5091201;28;20321;-64
2023/01/29 04:23:24;;;;;;;0.00;0.00;;;0.10;99.90;;;;;;5092002;28;20276;-65
2023/01/29 04:26:25;;;;;;;0.00;0.00;;;0.10;99.90;;;;;;5091415;28;20191;-64
2023/01/29 04:29:08;;;;;;;0.00;0.00;;;0.10;99.90;;;;;;5091474;28;20176;-65
2023/01/29 04:32:00;;;;;;;0.00;0.00;;;0.10;99.90;;;;;;5091717;28;20215;-65
2023/01/29 04:34:31;;;;;;;0.00;0.00;;;0.10;99.90;;;;;;5049815;28;20184;-64
2023/01/29 04:37:14;;;;;;;0.00;0.00;;;0.10;99.90;;;;;;5076218;28;20393;-64
2023/01/29 04:39:57;;;;;;;0.00;0.00;;;0.10;99.90;;;;;;5091320;28;20650;-65
2023/01/29 04:42:42;;;;;;;0.00;0.00;;;0.10;99.90;;;;;;5090415;28;20184;-64
2023/01/29 04:45:29;;;;;;;0.00;0.00;;;0.10;99.90;;;;;;5080204;28;20172;-64
2023/01/29 04:48:13;;;;;;;0.00;0.00;;;0.10;99.90;;;;;;5091322;28;20183;-64
2023/01/29 04:50:45;;;;;;;0.00;0.00;;;0.00;99.90;;;;;;5091333;28;20255;-64
2023/01/29 04:53:28;;;;;;;0.00;0.00;;;0.00;99.90;;;;;;5091490;28;20199;-65
2023/01/29 04:56:09;;;;;;;0.00;0.00;;;0.00;99.90;;;;;;5090602;28;20589;-65
2023/01/29 04:58:50;;;;;;;0.00;0.00;;;0.00;99.90;;;;;;5088244;28;20180;-64
2023/01/29 05:01:18;;;;;;;0.00;0.00;;;0.00;99.90;;;;;;5091220;28;20198;-64
2023/01/29 05:03:48;;;;;;;0.00;0.00;;;0.00;99.90;;;;;;5091471;28;20184;-64
2023/01/29 05:06:15;;;;;;;0.00;0.00;;;0.00;99.90;;;;;;5091021;28;20225;-65
2023/01/29 05:08:41;;;;;;;0.00;0.00;;;0.00;99.90;;;;;;5090831;28;20196;-64
2023/01/29 05:11:08;;;;;;;0.00;0.00;;;0.00;99.90;;;;;;5091509;28;20203;-65
2023/01/29 05:13:37;;;;;;;0.00;0.00;;;0.00;99.90;;;;;;5090674;28;20219;-64
2023/01/29 05:16:24;;;;;;;0.00;0.00;;;0.00;99.90;;;;;;5090739;28;20713;-64
2023/01/29 05:18:50;;;;;;;0.00;0.00;;;0.00;99.90;;;;;;5090777;28;20198;-64
2023/01/29 05:21:15;;;;;;;0.00;0.00;;;-0.10;99.90;;;;;;5094461;28;20184;-64
2023/01/29 05:23:51;;;;;;;0.10;0.10;;;-0.10;99.90;;;;;;5094959;28;20180;-64
2023/01/29 05:29:03;;;;;;;0.00;0.00;;;-0.10;99.90;;;;;;5095235;28;20276;-64
2023/01/29 05:31:28;;;;;;;0.00;0.00;;;-0.10;99.90;;;;;;5095098;28;20259;-64
2023/01/29 05:33:54;;;;;;;0.00;0.00;;;-0.10;99.90;;;;;;5093297;28;20180;-64
2023/01/29 05:36:20;;;;;;;0.00;0.00;;;-0.10;99.90;;;;;;5094601;28;20222;-64
2023/01/29 05:38:45;;;;;;;0.00;0.00;;;-0.20;99.90;;;;;;5094170;28;20183;-64
2023/01/29 05:41:11;;;;;;;0.07;0.07;;;-0.10;99.90;;;;;;5094599;28;20191;-64
2023/01/29 05:43:36;;;;;;;0.00;0.00;;;-0.10;99.90;;;;;;5094529;28;20207;-64
2023/01/29 05:46:03;;;;;;;0.00;0.00;;;-0.20;99.90;;;;;;5094510;28;20183;-64
2023/01/29 05:48:30;;;;;;;0.00;0.00;;;-0.20;99.90;;;;;;5094490;28;20180;-64
2023/01/29 05:51:04;;;;;;;0.00;0.00;;;-0.20;99.90;;;;;;5092644;28;20631;-64
2023/01/29 05:53:30;;;;;;;0.00;0.00;;;-0.20;99.90;;;;;;5094801;28;20531;-64
2023/01/29 05:55:59;;;;;;;0.00;0.00;;;-0.20;99.90;;;;;;5093990;28;20223;-64
2023/01/29 05:58:24;;;;;;;0.00;0.00;;;-0.20;99.90;;;;;;5094202;28;20184;-64
2023/01/29 06:00:50;;;;;;;0.00;0.00;;;-0.20;99.90;;;;;;5092830;28;20176;-64
2023/01/29 06:03:15;;;;;;;0.50;0.50;;;-0.10;99.90;;;;;;5089347;28;20188;-65
2023/01/29 06:05:41;;;;;;;0.20;0.20;;;-0.20;99.90;;;;;;5093816;28;20211;-64
2023/01/29 06:08:07;;;;;;;0.00;0.00;;;-0.20;99.90;;;;;;5094204;28;20635;-64
2023/01/29 06:10:32;;;;;;;0.00;0.00;;;-0.20;99.90;;;;;;5093565;28;20180;-64
2023/01/29 06:12:58;;;;;;;0.00;0.00;;;-0.20;99.90;;;;;;5093071;28;20689;-64
2023/01/29 06:15:25;;;;;;;0.00;0.00;;;-0.20;99.90;;;;;;5094248;28;20212;-64
2023/01/29 06:17:52;;;;;;;0.30;0.30;;;-0.20;99.90;;;;;;5093660;28;20530;-64
2023/01/29 06:20:18;;;;;;;0.00;0.00;;;-0.20;99.90;;;;;;5093746;28;20298;-64
2023/01/29 06:22:43;;;;;;;0.00;0.00;;;-0.20;99.90;;;;;;5094162;28;20643;-64
2023/01/29 06:25:09;;;;;;;0.00;0.00;;;-0.30;99.90;;;;;;5093471;28;20593;-64
2023/01/29 06:27:34;;;;;;;0.10;0.10;;;-0.20;99.90;;;;;;5093468;28;20176;-64
2023/01/29 06:30:00;;;;;;;0.00;0.00;;;-0.20;99.90;;;;;;5093712;28;20180;-65
2023/01/29 06:32:26;;;;;;;0.00;0.00;;;-0.20;99.90;;;;;;5092041;28;20522;-65
2023/01/29 06:34:52;;;;;;;0.00;0.00;;;-0.30;99.90;;;;;;5091986;28;20852;-65
2023/01/29 06:37:17;;;;;;;0.00;0.00;;;-0.30;99.90;;;;;;5093165;28;20263;-65
2023/01/29 06:39:43;;;;;;;0.00;0.00;;;-0.30;99.90;;;;;;5093316;28;20215;-65
2023/01/29 06:42:09;;;;;;;0.23;0.23;;;-0.30;99.90;;;;;;5091722;28;20188;-65
2023/01/29 06:44:35;;;;;;;0.00;0.00;;;-0.30;99.90;;;;;;5093473;28;20176;-65
2023/01/29 06:47:01;;;;;;;0.00;0.00;;;-0.30;99.90;;;;;;5092722;28;20176;-65
2023/01/29 06:49:26;;;;;;;0.40;0.40;;;-0.30;99.90;;;;;;5093206;28;20172;-65
2023/01/29 06:51:52;;;;;;;0.00;0.00;;;-0.30;99.90;;;;;;5093163;28;20226;-65
2023/01/29 06:54:17;;;;;;;0.00;0.00;;;-0.30;99.90;;;;;;5093352;28;20248;-66
2023/01/29 06:56:43;;;;;;;0.73;0.40;;;-0.30;99.90;;;;;;5092730;28;20747;-65
2023/01/29 06:59:10;;;;;;;0.00;0.00;;;-0.30;99.90;;;;;;5093017;28;20176;-65
2023/01/29 07:01:40;;;;;;;0.00;0.00;;;-0.30;99.90;;;;;;5093061;28;20195;-65
2023/01/29 07:04:05;;;;;;;0.20;0.20;;;-0.30;99.90;;;;;;5093063;28;20188;-65
2023/01/29 07:06:31;;;;;;;1.53;0.17;;;-0.30;99.90;;;;;;5091755;28;20203;-64
2023/01/29 07:08:57;;;;;;;0.00;0.00;;;-0.30;99.90;;;;;;5093018;28;20184;-64
2023/01/29 07:11:22;;;;;;;0.00;0.00;;;-0.20;99.90;;;;;;5092368;28;20203;-64
2023/01/29 07:13:48;;;;;;;0.00;0.00;;;-0.20;99.90;;;;;;5092845;28;20183;-64
2023/01/29 07:16:13;;;;;;;0.00;0.00;;;-0.20;99.90;;;;;;5093213;28;20242;-64
2023/01/29 07:18:39;;;;;;;0.00;0.00;;;-0.20;99.90;;;;;;5092813;28;20263;-64
2023/01/29 07:21:05;;;;;;;0.00;0.00;;;-0.20;99.90;;;;;;5091522;28;20178;-64
2023/01/29 07:23:31;;;;;;;0.00;0.00;;;-0.10;99.90;;;;;;5092648;28;20172;-64
2023/01/29 07:26:01;;;;;;;0.00;0.00;;;-0.10;99.90;;;;;;5091088;28;20202;-64
2023/01/29 07:28:27;;;;;;;0.00;0.00;;;-0.10;99.90;;;;;;5093015;28;20176;-64
2023/01/29 07:30:58;;;;;;;0.00;0.00;;;-0.10;99.90;;;;;;5092504;28;20234;-64
2023/01/29 07:33:25;;;;;;;0.00;0.00;;;-0.10;99.90;;;;;;5092592;28;20539;-64
2023/01/29 07:35:51;;;;;;;0.00;0.00;;;-0.10;99.90;;;;;;5092452;28;20303;-64
2023/01/29 07:38:16;;;;;;;0.00;0.00;;;-0.10;99.90;;;;;;5092632;28;20307;-64
2023/01/29 07:40:43;;;;;;;0.00;0.00;;;0.00;99.90;;;;;;5092641;28;20229;-64
2023/01/29 07:43:09;;;;;;;0.00;0.00;;;0.00;99.90;;;;;;5092017;28;20638;-65
2023/01/29 07:45:36;;;;;;;0.00;0.00;;;0.10;99.90;;;;;;5092033;28;20192;-65
2023/01/29 07:48:03;;;;;;;0.00;0.00;;;0.10;99.90;;;;;;5092346;28;20635;-64
2023/01/29 07:50:30;;;;;;;0.00;0.00;;;0.10;99.90;;;;;;5091550;28;20316;-64
2023/01/29 07:52:56;;;;;;;0.27;0.27;;;0.20;99.90;;;;;;5091771;28;20550;-64
2023/01/29 07:55:22;;;;;;;0.00;0.00;;;0.20;99.90;;;;;;5091376;28;20204;-64
2023/01/29 07:57:57;;;;;;;0.00;0.00;;;0.20;99.90;;;;;;5092080;28;20194;-64
2023/01/29 08:00:23;;;;;;;0.00;0.00;;;0.20;99.90;;;;;;5092082;28;20167;-65
2023/01/29 08:02:48;;;;;;;0.10;0.10;;;0.30;99.90;;;;;;5090506;28;20176;-65
2023/01/29 08:05:14;;;;;;;0.20;0.20;;;0.30;99.90;;;;;;5091455;28;20184;-65
2023/01/29 08:07:39;;;;;;;0.00;0.00;;;0.30;99.90;;;;;;5091969;28;20533;-65
2023/01/29 08:10:05;;;;;;;0.10;0.10;;;0.40;99.90;;;;;;5091336;28;20639;-64
2023/01/29 08:12:30;;;;;;;0.30;0.30;;;0.40;99.90;;;;;;5091689;28;20276;-65
2023/01/29 08:14:56;;;;;;;0.00;0.00;;;0.40;99.90;;;;;;5090833;28;20602;-64
2023/01/29 08:17:21;;;;;;;0.00;0.00;;;0.50;99.90;;;;;;5091561;28;20665;-64
2023/01/29 08:19:47;;;;;;;0.00;0.00;;;0.50;99.90;;;;;;5091697;28;20184;-64
2023/01/29 08:22:14;;;;;;;0.10;0.10;;;0.60;99.90;;;;;;5091177;28;20184;-65
2023/01/29 08:24:39;;;;;;;0.00;0.00;;;0.60;99.90;;;;;;5091362;28;20184;-64
2023/01/29 08:27:05;;;;;;;0.00;0.00;;;0.60;99.90;;;;;;5091620;28;20289;-65
2023/01/29 08:29:30;;;;;;;0.00;0.00;;;0.70;99.90;;;;;;5091523;28;20199;-65
2023/01/29 08:31:56;;;;;;;0.30;0.30;;;0.70;99.90;;;;;;5091043;28;20208;-65
2023/01/29 08:34:21;;;;;;;0.53;0.27;;;0.70;99.90;;;;;;5091717;28;20180;-64
2023/01/29 08:36:47;;;;;;;0.00;0.00;;;0.80;99.90;;;;;;5091466;28;20682;-64
2023/01/29 08:39:12;;;;;;;0.00;0.00;;;0.80;99.90;;;;;;5091085;28;20184;-65
2023/01/29 08:41:38;;;;;;;0.00;0.00;;;0.90;99.90;;;;;;5090595;28;20180;-64
2023/01/29 08:44:03;;;;;;;0.00;0.00;;;0.90;99.90;;;;;;5091460;28;20180;-64
2023/01/29 08:46:30;;;;;;;0.00;0.00;;;0.90;99.90;;;;;;5091472;28;20176;-64
2023/01/29 08:48:55;;;;;;;0.00;0.00;;;1.00;99.90;;;;;;5091246;28;20188;-65
2023/01/29 08:51:23;;;;;;;0.00;0.00;;;1.10;99.90;;;;;;5091135;28;20172;-64
2023/01/29 08:53:49;;;;;;;0.08;0.08;;;1.30;99.90;;;;;;5090352;28;20180;-65
2023/01/29 08:56:15;;;;;;;0.00;0.00;;;1.40;99.90;;;;;;5094567;28;20218;-65
2023/01/29 08:58:41;;;;;;;0.00;0.00;;;1.50;99.90;;;;;;5095548;28;20176;-65
2023/01/29 09:01:11;;;;;;;0.05;0.05;;;1.60;99.90;;;;;;5094207;28;20180;-65
2023/01/29 09:03:39;;;;;;;0.00;0.00;;;1.70;99.90;;;;;;5095458;28;20176;-65
2023/01/29 09:06:06;;;;;;;0.00;0.00;;;1.80;99.90;;;;;;5094755;28;20192;-64
2023/01/29 09:08:31;;;;;;;0.00;0.00;;;1.90;99.90;;;;;;5095142;28;20184;-63
2023/01/29 09:11:00;;;;;;;0.05;0.05;;;1.90;99.90;;;;;;5094947;28;20192;-65
2023/01/29 09:13:25;;;;;;;0.10;0.10;;;1.90;99.90;;;;;;5095279;28;20227;-65
2023/01/29 09:15:51;;;;;;;0.00;0.00;;;2.00;99.90;;;;;;5094532;28;20211;-65
2023/01/29 09:18:17;;;;;;;0.00;0.00;;;2.00;99.90;;;;;;5095475;28;20184;-66
2023/01/29 09:20:42;;;;;;;0.15;0.15;;;2.20;99.90;;;;;;5095130;28;20233;-68
2023/01/29 09:23:09;;;;;;;0.00;0.00;;;2.40;99.90;;;;;;5094782;28;20657;-62
2023/01/29 09:25:36;;;;;;;0.00;0.00;;;2.50;99.60;;;;;;5094318;28;20181;-64
2023/01/29 09:28:02;;;;;;;0.00;0.00;;;2.60;99.30;;;;;;5093331;28;20179;-65
2023/01/29 09:30:27;;;;;;;0.30;0.20;;;2.70;98.80;;;;;;5094802;28;20180;-69
2023/01/29 09:32:53;;;;;;;0.00;0.00;;;2.70;98.60;;;;;;5094473;28;20187;-66
2023/01/29 09:35:19;;;;;;;0.00;0.00;;;2.60;98.20;;;;;;5095025;28;20216;-66
2023/01/29 09:37:48;;;;;;;0.00;0.00;;;2.70;98.50;;;;;;5094506;28;20536;-64
2023/01/29 09:40:31;;;;;;;0.00;0.00;;;2.90;98.90;;;;;;5094201;28;20180;-66
2023/01/29 09:43:14;;;;;;;0.03;0.03;;;3.00;97.90;;;;;;5094541;28;20658;-66
2023/01/29 09:45:59;;;;;;;0.10;0.10;;;3.00;97.90;;;;;;5095013;28;20541;-68
2023/01/29 09:48:29;;;;;;;0.00;0.00;;;3.00;98.20;;;;;;5092254;28;20181;-68
2023/01/29 09:50:57;;;;;;;0.00;0.00;;;3.00;97.70;;;;;;5094608;28;20287;-69
2023/01/29 09:53:39;;;;;;;0.00;0.00;;;3.00;97.60;;;;;;5093350;28;20191;-69
2023/01/29 09:56:18;;;;;;;0.00;0.00;;;3.00;97.90;;;;;;5094627;28;20219;-70
2023/01/29 09:58:43;;;;;;;0.00;0.00;;;3.10;98.20;;;;;;5094346;28;20190;-69
2023/01/29 10:01:29;;;;;;;0.00;0.00;;;3.10;97.90;;;;;;5086738;28;20531;-68
2023/01/29 10:04:32;;;;;;;0.00;0.00;;;3.10;97.40;;;;;;5080180;28;20180;-68
2023/01/29 10:06:58;;;;;;;0.00;0.00;;;3.10;98.00;;;;;;5084617;28;20670;-69
2023/01/29 10:09:32;;;;;;;0.00;0.00;;;3.10;98.10;;;;;;5094594;28;20189;-69
2023/01/29 10:12:12;;;;;;;0.00;0.00;;;3.10;97.80;;;;;;5094333;28;20229;-69
2023/01/29 10:14:50;;;;;;;0.00;0.00;;;3.00;97.80;;;;;;5094101;28;20192;-69
2023/01/29 10:17:37;;;;;;;0.00;0.00;;;2.90;97.70;;;;;;5094241;28;20187;-70
2023/01/29 10:20:31;;;;;;;0.00;0.00;;;3.00;98.00;;;;;;5094393;28;20177;-70
2023/01/29 10:22:59;;;;;;;0.00;0.00;;;3.20;98.30;;;;;;5079390;28;20176;-69
2023/01/29 10:25:25;;;;;;;0.40;0.40;;;3.40;98.00;;;;;;5093848;28;20180;-69
2023/01/29 10:27:53;;;;;;;0.00;0.00;;;3.60;97.10;;;;;;5094188;28;20172;-70
2023/01/29 10:30:42;;;;;;;0.00;0.00;;;3.70;97.10;;;;;;5094253;28;20229;-69
2023/01/29 10:33:16;;;;;;;0.13;0.13;;;3.80;96.40;;;;;;5094253;28;20578;-68
2023/01/29 10:35:45;;;;;;;0.10;0.10;;;3.70;96.30;;;;;;5094262;28;20204;-68
2023/01/29 10:38:27;;;;;;;0.00;0.00;;;3.70;96.50;;;;;;5094110;28;20638;-69
2023/01/29 10:41:20;;;;;;;0.00;0.00;;;3.70;96.70;;;;;;5093872;28;20512;-69
2023/01/29 10:44:01;;;;;;;0.00;0.00;;;3.90;96.60;;;;;;5093940;28;20183;-68
2023/01/29 10:46:38;;;;;;;0.10;0.10;;;3.90;96.00;;;;;;5092759;28;20187;-68
2023/01/29 10:49:41;;;;;;;0.00;0.00;;;3.90;96.00;;;;;;5093672;28;20222;-69
2023/01/29 10:52:25;;;;;;;0.00;0.00;;;3.90;95.90;;;;;;5094038;28;20176;-69
2023/01/29 10:54:59;;;;;;;0.10;0.10;;;3.90;95.70;;;;;;5093772;28;20172;-69
2023/01/29 10:57:41;;;;;;;0.00;0.00;;;3.90;95.70;;;;;;5094971;28;20180;-69
2023/01/29 11:00:18;;;;;;;0.00;0.00;;;3.70;94.90;;;;;;5093770;28;20180;-68
2023/01/29 11:02:47;;;;;;;0.00;0.00;;;3.50;95.10;;;;;;5093502;28;20201;-68
2023/01/29 11:05:21;;;;;;;0.00;0.00;;;3.40;95.60;;;;;;5093118;28;20663;-69
2023/01/29 11:07:48;;;;;;;0.00;0.00;;;3.30;95.90;;;;;;5093269;28;20700;-69
2023/01/29 11:10:18;;;;;;;0.00;0.00;;;3.30;96.30;;;;;;5092996;28;20176;-69
2023/01/29 11:12:45;;;;;;;0.00;0.00;;;3.20;96.30;;;;;;5093011;28;20686;-69
2023/01/29 11:15:26;;;;;;;0.08;0.08;;;3.10;96.60;;;;;;5093333;28;20606;-69
2023/01/29 11:18:04;;;;;;;0.32;0.32;;;3.10;97.00;;;;;;5092702;28;20586;-69
2023/01/29 11:20:31;;;;;;;0.00;0.00;;;3.10;96.70;;;;;;5092920;28;20179;-69
2023/01/29 11:22:58;;;;;;;0.20;0.20;;;3.10;97.00;;;;;;5092638;28;20529;-69
2023/01/29 11:25:24;;;;;;;0.00;0.00;;;3.00;97.10;;;;;;5093120;28;20306;-69
2023/01/29 11:27:55;;;;;;;0.00;0.00;;;2.90;97.00;;;;;;5092984;28;20275;-70
2023/01/29 11:30:30;;;;;;;0.10;0.10;;;2.90;96.90;;;;;;5092341;28;20178;-69
2023/01/29 11:33:17;;;;;;;0.00;0.00;;;2.90;97.40;;;;;;5092166;28;20295;-68
2023/01/29 11:35:43;;;;;;;0.00;0.00;;;3.00;97.50;;;;;;5079410;28;20229;-69
2023/01/29 11:38:14;;;;;;;0.00;0.00;;;3.30;97.40;;;;;;5092800;28;20176;-68
2023/01/29 11:40:41;;;;;;;0.08;0.08;;;3.50;97.10;;;;;;5092724;28;20266;-68
2023/01/29 11:43:29;;;;;;;0.03;0.03;;;3.60;96.40;;;;;;5092397;28;20176;-70
2023/01/29 11:46:02;;;;;;;0.00;0.00;;;3.70;96.00;;;;;;5091184;28;20188;-69
2023/01/29 11:48:46;;;;;;;0.08;0.08;;;3.80;96.20;;;;;;5092552;28;20226;-69
2023/01/29 11:51:22;;;;;;;0.10;0.10;;;3.80;96.30;;;;;;5091434;28;20184;-69
2023/01/29 11:53:57;;;;;;;0.00;0.00;;;3.80;96.00;;;;;;5092443;28;20717;-69
2023/01/29 11:56:43;;;;;;;0.00;0.00;;;3.70;96.00;;;;;;5091558;28;20561;-70
2023/01/29 11:59:27;;;;;;;0.00;0.00;;;3.60;95.90;;;;;;5090100;28;20259;-69
2023/01/29 12:01:53;;;;;;;0.00;0.00;;;3.60;96.00;;;;;;5092119;28;20648;-69
2023/01/29 12:04:25;;;;;;;0.00;0.00;;;3.50;95.90;;;;;;5092132;28;20203;-70
2023/01/29 12:06:52;;;;;;;0.00;0.00;;;3.40;95.80;;;;;;5090762;28;20562;-69
2023/01/29 12:09:24;;;;;;;0.00;0.00;;;3.30;96.00;;;;;;5091776;28;20184;-69
2023/01/29 12:11:51;;;;;;;0.00;0.00;;;3.10;96.50;;;;;;5091274;28;20220;-70
2023/01/29 12:14:32;;;;;;;0.00;0.00;;;3.00;96.60;;;;;;5091676;28;20195;-68
2023/01/29 12:17:07;;;;;;;0.00;0.00;;;3.10;97.20;;;;;;5091213;28;20224;-69
2023/01/29 12:19:52;;;;;;;0.10;0.10;;;3.20;97.10;;;;;;5088574;28;20188;-69
2023/01/29 12:22:38;;;;;;;0.00;0.00;;;3.50;97.10;;;;;;5089163;28;20180;-69
2023/01/29 12:25:22;;;;;;;0.00;0.00;;;3.60;96.00;;;;;;5091193;28;20168;-68
2023/01/29 12:28:05;;;;;;;0.00;0.00;;;3.60;96.10;;;;;;5088985;28;20187;-68
2023/01/29 12:30:40;;;;;;;0.00;0.00;;;3.60;96.40;;;;;;5091048;28;20197;-68
2023/01/29 12:33:26;;;;;;;0.00;0.00;;;3.50;96.70;;;;;;5090230;28;20533;-68
2023/01/29 12:36:09;;;;;;;0.00;0.00;;;3.50;96.40;;;;;;5091372;28;20204;-68
2023/01/29 12:38:36;;;;;;;0.00;0.00;;;3.40;96.30;;;;;;5091235;28;20176;-68
2023/01/29 12:41:04;;;;;;;0.20;0.20;;;3.40;96.50;;;;;;5091672;28;20187;-69
2023/01/29 12:43:45;;;;;;;0.10;0.10;;;3.30;96.60;;;;;;5091638;28;20172;-70
2023/01/29 12:46:32;;;;;;;0.00;0.00;;;3.40;96.70;;;;;;5090440;28;20179;-69
2023/01/29 12:49:02;;;;;;;0.00;0.00;;;3.40;96.70;;;;;;5091489;28;20187;-67
2023/01/29 12:51:37;;;;;;;0.00;0.00;;;3.40;96.60;;;;;;5089908;28;20176;-67
2023/01/29 12:54:11;;;;;;;0.00;0.00;;;3.40;96.70;;;;;;5091350;28;20180;-71
2023/01/29 12:56:47;;;;;;;0.08;0.08;;;3.50;96.90;;;;;;5091498;28;20272;-69
2023/01/29 12:59:18;;;;;;;0.10;0.10;;;3.40;96.50;;;;;;5088549;28;20186;-67
2023/01/29 13:01:53;;;;;;;0.03;0.03;;;3.40;97.40;;;;;;5091092;28;20269;-69
2023/01/29 13:04:35;;;;;;;0.00;0.00;;;3.40;97.70;;;;;;5090853;28;20179;-69
2023/01/29 13:07:29;;;;;;;0.00;0.00;;;3.40;97.50;;;;;;5089866;28;20230;-69
2023/01/29 13:10:03;;;;;;;0.00;0.00;;;3.50;97.50;;;;;;5088071;28;20177;-69
2023/01/29 13:12:30;;;;;;;0.00;0.00;;;3.50;96.80;;;;;;5090657;28;20571;-70
2023/01/29 13:15:04;;;;;;;0.00;0.00;;;3.50;96.70;;;;;;5089935;28;20184;-69
2023/01/29 13:17:41;;;;;;;0.00;0.00;;;3.50;97.00;;;;;;5090820;28;20180;-70
2023/01/29 13:20:12;;;;;;;0.00;0.00;;;3.50;96.40;;;;;;5091183;28;20180;-71
2023/01/29 13:22:39;;;;;;;0.00;0.00;;;3.50;96.60;;;;;;5089867;28;20180;-65
2023/01/29 13:25:11;;;;;;;0.00;0.00;;;3.60;96.60;;;;;;5090567;28;20180;-68
2023/01/29 13:27:37;;;;;;;0.10;0.10;;;3.70;96.60;;;;;;5090409;28;20180;-69
2023/01/29 13:30:03;;;;;;;0.08;0.08;;;3.70;96.70;;;;;;5090735;28;20271;-67
2023/01/29 13:32:31;;;;;;;0.00;0.00;;;3.60;96.70;;;;;;5090629;28;20265;-64
2023/01/29 13:35:12;;;;;;;0.00;0.00;;;3.60;96.90;;;;;;5090298;28;20184;-67
2023/01/29 13:37:52;;;;;;;0.00;0.00;;;3.60;96.80;;;;;;5090001;28;20261;-65
2023/01/29 13:40:25;;;;;;;0.00;0.00;;;3.60;96.50;;;;;;5091136;28;20550;-65
2023/01/29 13:42:53;;;;;;;0.00;0.00;;;3.50;96.50;;;;;;5093862;28;20207;-65
2023/01/29 13:45:34;;;;;;;0.00;0.00;;;3.50;96.70;;;;;;5095045;28;20179;-65
2023/01/29 13:48:18;;;;;;;0.00;0.00;;;3.60;96.60;;;;;;5094969;28;20176;-65
2023/01/29 13:50:45;;;;;;;0.00;0.00;;;3.70;96.60;;;;;;5095024;28;20164;-65